Time;durP1;ratioP1;P1;durP2;ratioP2;P2;SDS_P1;SDS_P2;PMS_P1;PMS_P2;Temp;Humidity;BMP_temperature;BMP_pressure;BME280_temperature;BME280_humidity;BME280_pressure;Samples;Min_cycle;Max_cycle;Signal;HPM_P1;HPM_P2
2021/10/10 00:01:11;;;;;;;12.50;10.10;;;6.80;24.50;;;;;;5118562;28;20983;-50
2021/10/10 00:03:40;;;;;;;15.50;10.80;;;6.70;33.20;;;;;;5118633;28;20463;-51
2021/10/10 00:06:08;;;;;;;11.67;9.57;;;6.70;41.70;;;;;;5118482;28;20492;-47
2021/10/10 00:08:35;;;;;;;18.50;12.07;;;6.80;73.40;;;;;;5117957;28;20512;-52
2021/10/10 00:11:02;;;;;;;12.67;10.57;;;6.80;85.90;;;;;;5118318;28;20570;-55
2021/10/10 00:13:29;;;;;;;11.47;10.27;;;6.70;99.90;;;;;;5118516;28;20459;-50
2021/10/10 00:15:56;;;;;;;11.17;10.00;;;6.70;99.90;;;;;;5118579;28;20508;-51
2021/10/10 00:18:23;;;;;;;12.20;10.80;;;6.70;99.90;;;;;;5118114;28;20491;-53
2021/10/10 00:20:51;;;;;;;12.23;10.73;;;6.70;99.90;;;;;;5118334;28;20457;-54
2021/10/10 00:23:21;;;;;;;11.53;10.40;;;6.70;99.90;;;;;;5117984;28;20513;-54
2021/10/10 00:25:48;;;;;;;11.27;10.10;;;6.70;99.90;;;;;;5117907;28;20466;-50
2021/10/10 00:28:15;;;;;;;13.17;10.70;;;6.70;99.90;;;;;;5118278;28;20490;-46
2021/10/10 00:30:42;;;;;;;13.47;10.70;;;6.70;99.90;;;;;;5118190;28;20813;-49
2021/10/10 00:33:09;;;;;;;13.40;10.63;;;6.70;99.90;;;;;;5117755;28;20463;-51
2021/10/10 00:35:36;;;;;;;18.27;11.10;;;6.90;99.90;;;;;;5117459;28;20536;-53
2021/10/10 00:38:08;;;;;;;11.80;10.00;;;6.90;28.30;;;;;;5117927;28;20822;-48
2021/10/10 00:40:35;;;;;;;14.70;11.10;;;7.00;2.20;;;;;;5117399;28;20464;-52
2021/10/10 00:43:02;;;;;;;10.57;9.10;;;7.00;1.00;;;;;;5117836;28;20476;-53
2021/10/10 01:00:59;;;;;;;14.90;9.83;;;6.90;1.00;;;;;;5122798;27;21793;-50
2021/10/10 01:03:26;;;;;;;16.03;10.50;;;7.10;1.00;;;;;;5135763;27;20848;-52
2021/10/10 01:05:53;;;;;;;16.70;12.40;;;7.10;1.00;;;;;;5138261;27;20494;-53
2021/10/10 01:08:20;;;;;;;13.50;10.80;;;7.00;1.00;;;;;;5137882;27;20906;-55
2021/10/10 01:10:49;;;;;;;12.57;9.73;;;7.00;1.00;;;;;;5138057;27;20920;-53
2021/10/10 01:13:17;;;;;;;13.23;10.70;;;6.90;1.00;;;;;;5137389;28;20479;-49
2021/10/10 01:15:45;;;;;;;13.03;11.20;;;6.90;1.00;;;;;;5137634;28;20460;-52
2021/10/10 01:18:19;;;;;;;12.73;10.73;;;6.80;1.00;;;;;;5137540;27;20486;-50
2021/10/10 01:20:48;;;;;;;14.67;10.77;;;6.60;1.00;;;;;;5138133;28;20500;-52
2021/10/10 01:23:15;;;;;;;13.67;10.50;;;6.50;1.00;;;;;;5137825;27;20500;-49
2021/10/10 01:25:44;;;;;;;17.30;11.40;;;6.50;13.40;;;;;;5138411;28;20585;-51
2021/10/10 01:28:11;;;;;;;14.80;11.20;;;6.50;36.60;;;;;;5137814;27;20494;-54
2021/10/10 01:30:38;;;;;;;15.80;11.63;;;6.40;99.90;;;;;;5137648;28;20462;-55
2021/10/10 01:33:08;;;;;;;13.00;10.93;;;6.30;99.90;;;;;;5137945;28;20501;-56
2021/10/10 01:35:35;;;;;;;12.30;11.00;;;6.30;99.90;;;;;;5138035;28;20914;-56
2021/10/10 01:38:05;;;;;;;15.07;11.87;;;6.20;99.90;;;;;;5137909;28;20490;-56
2021/10/10 01:40:33;;;;;;;13.17;10.87;;;6.20;99.90;;;;;;5137470;28;20441;-54
2021/10/10 01:43:02;;;;;;;14.67;11.10;;;6.10;99.90;;;;;;5137322;28;20444;-55
2021/10/10 01:45:29;;;;;;;15.67;11.30;;;6.00;99.90;;;;;;5137818;28;20489;-50
2021/10/10 01:47:56;;;;;;;13.90;12.03;;;6.00;1.00;;;;;;5137767;27;20467;-50
2021/10/10 01:50:26;;;;;;;15.47;11.10;;;6.10;1.00;;;;;;5137579;28;20912;-51
2021/10/10 01:52:53;;;;;;;13.00;11.60;;;6.00;99.90;;;;;;5139305;27;20436;-51
2021/10/10 01:55:21;;;;;;;14.63;11.20;;;6.00;1.00;;;;;;5142033;27;20556;-56
2021/10/10 01:57:48;;;;;;;14.80;11.40;;;6.00;1.00;;;;;;5141769;27;20915;-51
2021/10/10 02:00:16;;;;;;;15.50;11.20;;;6.00;99.90;;;;;;5140413;27;20907;-53
2021/10/10 02:02:43;;;;;;;15.40;11.40;;;5.90;56.20;;;;;;5105934;28;20925;-50
2021/10/10 02:05:11;;;;;;;13.33;11.40;;;5.90;25.00;;;;;;5100472;28;20526;-56
2021/10/10 02:07:39;;;;;;;15.60;11.00;;;5.80;99.90;;;;;;5100628;28;20541;-53
2021/10/10 02:10:08;;;;;;;13.27;11.33;;;5.70;99.90;;;;;;5100593;28;20513;-54
2021/10/10 02:12:36;;;;;;;17.10;11.73;;;5.60;1.00;;;;;;5100018;28;20526;-57
2021/10/10 02:15:03;;;;;;;13.17;11.63;;;5.60;44.90;;;;;;5100196;28;20492;-54
2021/10/10 02:17:30;;;;;;;14.27;11.87;;;5.60;99.90;;;;;;5100656;28;20493;-53
2021/10/10 02:19:57;;;;;;;13.73;10.80;;;5.60;1.00;;;;;;5100573;28;20467;-56
2021/10/10 02:22:24;;;;;;;14.83;11.37;;;5.50;99.90;;;;;;5099973;28;20460;-53
2021/10/10 02:24:54;;;;;;;15.03;11.80;;;5.50;1.00;;;;;;5100304;28;20840;-55
2021/10/10 02:27:20;;;;;;;12.37;11.07;;;5.40;99.90;;;;;;5100073;28;20828;-58
2021/10/10 02:29:49;;;;;;;17.57;11.60;;;5.50;99.90;;;;;;5099704;28;20492;-57
2021/10/10 02:32:16;;;;;;;12.77;10.93;;;5.50;99.90;;;;;;5099743;28;20518;-54
2021/10/10 02:34:43;;;;;;;14.33;11.27;;;5.40;96.30;;;;;;5099365;28;20456;-52
2021/10/10 02:37:10;;;;;;;15.43;11.90;;;5.50;99.90;;;;;;5099825;28;20493;-54
2021/10/10 02:39:37;;;;;;;13.17;11.27;;;5.40;1.00;;;;;;5100049;28;20815;-57
2021/10/10 02:42:05;;;;;;;15.20;11.43;;;5.40;99.90;;;;;;5099825;28;20474;-58
2021/10/10 02:44:33;;;;;;;13.00;10.30;;;5.20;50.20;;;;;;5099351;28;20492;-58
2021/10/10 02:47:01;;;;;;;13.90;9.90;;;5.20;99.90;;;;;;5100147;28;20464;-56
2021/10/10 02:49:28;;;;;;;12.47;10.90;;;5.30;99.90;;;;;;5099982;28;20463;-58
2021/10/10 02:51:56;;;;;;;16.07;11.90;;;5.20;99.90;;;;;;5099891;28;20488;-57
2021/10/10 02:54:22;;;;;;;13.83;11.70;;;5.20;99.90;;;;;;5099226;28;20525;-58
2021/10/10 02:56:49;;;;;;;14.77;10.30;;;5.10;1.00;;;;;;5099874;28;20492;-58
2021/10/10 02:59:16;;;;;;;17.97;11.80;;;5.10;41.60;;;;;;5099617;28;20460;-57
2021/10/10 03:01:43;;;;;;;14.07;11.50;;;5.10;5.70;;;;;;5112364;27;20519;-58
2021/10/10 03:04:12;;;;;;;13.87;11.47;;;5.10;99.90;;;;;;5119456;28;20786;-55
2021/10/10 03:06:39;;;;;;;15.13;10.80;;;5.10;1.00;;;;;;5120147;28;20491;-58
2021/10/10 03:09:05;;;;;;;12.70;10.90;;;5.00;99.90;;;;;;5119422;28;20546;-58
2021/10/10 03:11:32;;;;;;;13.57;10.90;;;5.10;1.00;;;;;;5120111;28;20483;-58
2021/10/10 03:13:59;;;;;;;14.90;12.03;;;5.10;99.90;;;;;;5119123;28;20495;-56
2021/10/10 03:16:26;;;;;;;13.93;10.83;;;5.10;99.90;;;;;;5119159;28;20498;-58
2021/10/10 03:18:53;;;;;;;16.47;12.20;;;5.10;99.90;;;;;;5119240;28;20491;-57
2021/10/10 03:21:22;;;;;;;14.23;11.63;;;5.10;99.90;;;;;;5119673;28;20499;-57
2021/10/10 03:23:49;;;;;;;13.20;11.00;;;5.00;99.90;;;;;;5119584;28;20921;-59
2021/10/10 03:26:16;;;;;;;11.93;10.20;;;5.10;99.90;;;;;;5119389;28;20513;-59
2021/10/10 03:28:42;;;;;;;11.47;10.27;;;5.00;51.50;;;;;;5118939;28;20953;-59
2021/10/10 03:31:09;;;;;;;11.87;10.33;;;4.90;1.00;;;;;;5119283;28;20842;-58
2021/10/10 03:33:36;;;;;;;15.23;10.70;;;4.90;1.00;;;;;;5119265;28;20521;-59
2021/10/10 03:36:03;;;;;;;11.90;10.50;;;4.90;99.90;;;;;;5119280;28;20495;-59
2021/10/10 03:38:32;;;;;;;14.20;11.00;;;4.80;99.90;;;;;;5118956;28;20520;-57
2021/10/10 03:40:59;;;;;;;13.10;11.30;;;4.70;99.90;;;;;;5118889;28;20467;-57
2021/10/10 03:43:26;;;;;;;14.00;11.07;;;4.70;1.00;;;;;;5119019;28;20517;-59
2021/10/10 03:45:53;;;;;;;13.40;11.13;;;4.60;1.00;;;;;;5119025;28;20870;-59
2021/10/10 03:48:19;;;;;;;13.87;10.73;;;4.60;99.90;;;;;;5118645;28;20486;-59
2021/10/10 03:50:46;;;;;;;12.37;10.30;;;4.50;99.90;;;;;;5118806;28;20459;-59
2021/10/10 03:53:13;;;;;;;12.83;10.77;;;4.40;67.50;;;;;;5118684;28;20503;-59
2021/10/10 03:55:42;;;;;;;16.13;10.73;;;4.30;99.90;;;;;;5119165;28;20469;-59
2021/10/10 03:58:14;;;;;;;12.70;10.03;;;4.30;1.00;;;;;;5118716;28;20505;-59
2021/10/10 04:00:41;;;;;;;13.07;11.00;;;4.20;99.90;;;;;;5118457;28;20453;-59
2021/10/10 04:03:10;;;;;;;12.67;10.83;;;4.10;99.90;;;;;;5118331;28;20462;-60
2021/10/10 04:05:40;;;;;;;14.10;12.00;;;4.00;1.00;;;;;;5118614;28;20527;-59
2021/10/10 04:08:07;;;;;;;16.57;12.17;;;4.00;1.00;;;;;;5118680;28;20518;-59
2021/10/10 04:10:34;;;;;;;13.43;10.97;;;4.00;99.90;;;;;;5118446;28;20486;-59
2021/10/10 04:13:06;;;;;;;14.70;10.53;;;4.00;99.90;;;;;;5118456;28;20516;-58
2021/10/10 04:15:33;;;;;;;14.90;10.83;;;4.00;99.90;;;;;;5117438;28;20914;-59
2021/10/10 04:18:01;;;;;;;15.70;11.17;;;4.00;99.90;;;;;;5118744;28;20495;-59
2021/10/10 04:20:28;;;;;;;16.47;12.97;;;4.10;99.90;;;;;;5118322;28;20538;-57
2021/10/10 04:22:55;;;;;;;11.40;10.17;;;4.10;99.90;;;;;;5118147;28;20502;-58
2021/10/10 04:25:22;;;;;;;11.90;10.60;;;4.00;99.90;;;;;;5118124;28;20504;-55
2021/10/10 04:27:52;;;;;;;12.13;10.90;;;4.10;99.90;;;;;;5118650;28;20469;-59
2021/10/10 04:30:21;;;;;;;17.03;12.03;;;4.10;99.90;;;;;;5117898;28;20825;-58
2021/10/10 04:32:48;;;;;;;14.20;11.53;;;4.10;99.90;;;;;;5118128;28;20491;-57
2021/10/10 04:35:15;;;;;;;13.17;10.70;;;4.00;99.90;;;;;;5117906;28;20551;-58
2021/10/10 04:37:42;;;;;;;14.40;10.60;;;3.90;99.90;;;;;;5118086;28;20495;-58
2021/10/10 04:40:10;;;;;;;15.40;11.60;;;3.80;99.90;;;;;;5118381;28;20478;-58
2021/10/10 04:42:38;;;;;;;15.80;11.07;;;3.80;99.90;;;;;;5118367;28;20450;-57
2021/10/10 04:45:09;;;;;;;14.47;11.10;;;3.80;99.90;;;;;;5117692;28;20526;-58
2021/10/10 04:47:37;;;;;;;14.93;10.90;;;3.80;99.90;;;;;;5117983;28;20499;-57
2021/10/10 04:50:05;;;;;;;13.70;11.17;;;3.70;99.90;;;;;;5117905;28;20918;-58
2021/10/10 04:52:32;;;;;;;12.20;10.67;;;3.70;99.90;;;;;;5117441;28;20487;-58
2021/10/10 04:54:59;;;;;;;15.00;11.60;;;3.60;99.90;;;;;;5117804;28;20487;-55
2021/10/10 04:57:27;;;;;;;13.93;11.77;;;3.60;99.90;;;;;;5117820;28;20795;-58
2021/10/10 04:59:54;;;;;;;13.33;11.13;;;3.60;99.90;;;;;;5117729;28;20533;-56
2021/10/10 05:02:22;;;;;;;12.73;10.50;;;3.60;99.90;;;;;;5116838;28;20582;-56
2021/10/10 05:04:51;;;;;;;14.20;10.70;;;3.60;99.90;;;;;;5117432;28;20465;-56
2021/10/10 05:07:19;;;;;;;13.80;12.00;;;3.60;99.90;;;;;;5117649;28;20495;-54
2021/10/10 05:09:46;;;;;;;17.00;12.40;;;3.60;99.90;;;;;;5117737;28;20826;-56
2021/10/10 05:12:14;;;;;;;16.03;11.73;;;3.50;99.90;;;;;;5117728;28;20491;-56
2021/10/10 05:14:44;;;;;;;17.43;11.53;;;3.50;99.90;;;;;;5116590;28;20456;-56
2021/10/10 05:17:11;;;;;;;13.07;11.67;;;3.50;99.90;;;;;;5116906;28;20905;-56
2021/10/10 05:19:39;;;;;;;16.90;11.97;;;3.60;99.90;;;;;;5117461;28;20561;-53
2021/10/10 05:22:07;;;;;;;13.37;10.37;;;3.60;99.90;;;;;;5117617;28;20510;-54
2021/10/10 05:24:34;;;;;;;14.53;11.80;;;3.50;99.90;;;;;;5117252;28;20960;-52
2021/10/10 05:27:01;;;;;;;19.30;11.93;;;3.50;99.90;;;;;;5119450;28;20988;-50
2021/10/10 05:29:28;;;;;;;12.20;10.27;;;3.40;99.90;;;;;;5121542;28;20467;-50
2021/10/10 05:31:55;;;;;;;15.50;11.40;;;3.50;99.90;;;;;;5121776;28;20959;-52
2021/10/10 05:34:22;;;;;;;17.97;12.00;;;3.50;99.90;;;;;;5121150;28;20509;-53
2021/10/10 05:36:49;;;;;;;14.67;11.90;;;3.50;99.90;;;;;;5121321;28;20501;-54
2021/10/10 05:39:24;;;;;;;14.00;11.13;;;3.50;99.90;;;;;;5121531;28;20445;-54
2021/10/10 05:41:51;;;;;;;13.87;11.87;;;3.50;99.90;;;;;;5121729;28;20580;-54
2021/10/10 05:44:18;;;;;;;16.20;13.30;;;3.40;99.90;;;;;;5120906;28;20575;-47
2021/10/10 05:46:45;;;;;;;14.30;11.60;;;3.40;99.90;;;;;;5120980;28;20491;-50
2021/10/10 05:49:12;;;;;;;15.80;12.57;;;3.50;99.90;;;;;;5121313;28;20483;-52
2021/10/10 05:51:39;;;;;;;21.10;13.30;;;3.50;99.90;;;;;;5121589;28;20564;-52
2021/10/10 05:54:06;;;;;;;17.93;13.23;;;3.50;99.90;;;;;;5121351;28;20821;-52
2021/10/10 05:56:39;;;;;;;14.23;11.80;;;3.50;99.90;;;;;;5120798;28;20459;-55
2021/10/10 05:59:08;;;;;;;12.40;10.77;;;3.50;99.90;;;;;;5120716;28;20459;-50
2021/10/10 06:01:37;;;;;;;16.13;11.83;;;3.50;99.90;;;;;;5120676;28;20527;-54
2021/10/10 06:04:04;;;;;;;15.10;11.90;;;3.50;99.90;;;;;;5121186;28;20793;-50
2021/10/10 06:06:32;;;;;;;13.50;10.20;;;3.50;99.90;;;;;;5120482;28;20521;-49
2021/10/10 06:09:00;;;;;;;16.27;11.70;;;3.50;99.90;;;;;;5137930;27;20519;-50
2021/10/10 06:11:28;;;;;;;15.03;11.80;;;3.50;99.90;;;;;;5141290;27;20515;-51
2021/10/10 06:13:57;;;;;;;17.73;11.33;;;3.50;99.90;;;;;;5140981;27;20476;-47
2021/10/10 06:16:24;;;;;;;14.27;11.47;;;3.60;99.90;;;;;;5140941;27;20739;-52
2021/10/10 06:18:55;;;;;;;15.03;11.70;;;3.60;99.90;;;;;;5141292;27;20465;-48
2021/10/10 06:21:24;;;;;;;13.33;10.63;;;3.70;99.90;;;;;;5141574;27;20553;-55
2021/10/10 06:23:53;;;;;;;15.40;12.10;;;3.70;99.90;;;;;;5141273;27;20556;-50
2021/10/10 06:26:20;;;;;;;14.63;12.00;;;3.70;99.90;;;;;;5140660;27;20493;-50
2021/10/10 06:28:47;;;;;;;14.47;11.00;;;3.80;99.90;;;;;;5140465;27;20500;-53
2021/10/10 06:31:15;;;;;;;15.80;12.30;;;3.90;99.90;;;;;;5140438;27;20493;-52
2021/10/10 06:33:46;;;;;;;15.37;12.03;;;4.00;99.90;;;;;;5140710;27;20509;-53
2021/10/10 06:36:14;;;;;;;13.10;11.70;;;4.10;99.90;;;;;;5140901;27;20730;-55
2021/10/10 06:38:45;;;;;;;16.03;13.47;;;4.20;99.90;;;;;;5139565;27;20962;-58
2021/10/10 06:41:12;;;;;;;14.50;11.43;;;4.30;99.90;;;;;;5140327;27;20519;-55
2021/10/10 06:43:39;;;;;;;14.77;11.97;;;4.30;99.90;;;;;;5140920;27;20458;-58
2021/10/10 06:46:06;;;;;;;16.30;11.13;;;4.40;99.90;;;;;;5140702;27;20573;-57
2021/10/10 06:48:35;;;;;;;17.40;12.03;;;4.50;99.90;;;;;;5140397;27;20483;-59
2021/10/10 06:51:03;;;;;;;15.57;12.17;;;4.60;99.90;;;;;;5140576;27;20780;-59
2021/10/10 06:53:31;;;;;;;16.20;12.90;;;4.70;99.90;;;;;;5140348;27;20463;-59
2021/10/10 06:56:03;;;;;;;14.77;12.17;;;4.80;99.90;;;;;;5140636;27;20451;-59
2021/10/10 06:58:31;;;;;;;15.30;12.27;;;4.90;99.90;;;;;;5140442;27;20852;-59
2021/10/10 07:00:57;;;;;;;14.23;11.40;;;5.10;99.90;;;;;;5125611;27;20539;-59
2021/10/10 07:03:27;;;;;;;14.90;11.63;;;5.20;99.90;;;;;;5099562;28;20488;-58
2021/10/10 07:05:55;;;;;;;16.20;12.40;;;5.40;99.90;;;;;;5099230;28;20546;-59
2021/10/10 07:08:22;;;;;;;14.97;11.90;;;5.60;99.90;;;;;;5099234;28;20506;-58
2021/10/10 07:10:51;;;;;;;13.73;12.30;;;5.90;99.90;;;;;;5098957;28;20554;-59
2021/10/10 07:13:18;;;;;;;16.80;12.50;;;6.10;99.90;;;;;;5099679;28;20463;-59
2021/10/10 07:15:46;;;;;;;13.30;11.57;;;6.60;99.90;;;;;;5099453;28;20456;-56
2021/10/10 07:18:14;;;;;;;16.90;11.13;;;7.00;99.90;;;;;;5099588;28;20460;-56
2021/10/10 07:20:55;;;;;;;12.40;11.10;;;7.30;1.00;;;;;;5098328;28;20814;-58
2021/10/10 07:23:44;;;;;;;12.87;10.97;;;7.60;99.90;;;;;;5099316;28;20464;-55
2021/10/10 07:26:11;;;;;;;13.20;11.80;;;8.00;1.00;;;;;;5099335;28;20931;-56
2021/10/10 07:28:41;;;;;;;12.50;10.80;;;8.40;99.90;;;;;;5098619;28;20499;-59
2021/10/10 07:31:10;;;;;;;12.27;11.07;;;8.90;93.20;;;;;;5098619;28;20464;-56
2021/10/10 07:33:40;;;;;;;12.50;10.57;;;9.10;1.00;;;;;;5099023;28;20739;-59
2021/10/10 07:36:08;;;;;;;13.90;12.20;;;9.40;1.00;;;;;;5098876;28;20900;-59
2021/10/10 07:38:37;;;;;;;13.03;11.40;;;9.50;1.00;;;;;;5098724;28;20518;-59
2021/10/10 07:41:06;;;;;;;13.63;12.17;;;9.70;1.00;;;;;;5098462;28;20499;-57
2021/10/10 07:43:34;;;;;;;14.60;11.40;;;10.00;1.00;;;;;;5098850;28;20485;-58
2021/10/10 07:46:07;;;;;;;12.30;11.00;;;10.40;1.00;;;;;;5098608;28;20834;-58
2021/10/10 07:48:36;;;;;;;16.40;12.70;;;10.60;1.00;;;;;;5098558;28;20468;-57
2021/10/10 07:51:04;;;;;;;17.87;11.53;;;10.80;1.00;;;;;;5097209;28;20500;-58
2021/10/10 07:53:31;;;;;;;15.33;11.17;;;11.30;1.00;;;;;;5098618;28;20480;-57
2021/10/10 07:55:59;;;;;;;13.63;11.20;;;11.70;1.00;;;;;;5098015;28;20480;-59
2021/10/10 07:58:26;;;;;;;14.70;10.40;;;12.20;1.00;;;;;;5098496;28;20485;-58
2021/10/10 08:00:53;;;;;;;12.40;11.10;;;12.60;1.00;;;;;;5098070;28;20495;-58
2021/10/10 08:03:23;;;;;;;14.33;10.00;;;12.50;1.00;;;;;;5098111;28;20798;-59
2021/10/10 08:05:50;;;;;;;16.90;10.73;;;12.90;99.90;;;;;;5098142;28;20514;-59
2021/10/10 08:08:18;;;;;;;12.93;9.60;;;13.20;1.00;;;;;;5098018;28;20491;-57
2021/10/10 08:10:48;;;;;;;14.20;10.87;;;13.50;1.00;;;;;;5098390;28;20543;-57
2021/10/10 08:13:16;;;;;;;12.53;11.23;;;13.70;99.90;;;;;;5098050;28;20875;-58
2021/10/10 08:15:43;;;;;;;14.67;11.30;;;13.80;99.90;;;;;;5098513;28;20554;-57
2021/10/10 08:18:10;;;;;;;12.70;11.40;;;14.00;99.90;;;;;;5096700;28;20496;-56
2021/10/10 08:20:38;;;;;;;11.93;10.73;;;14.20;99.90;;;;;;5098170;28;20461;-54
2021/10/10 08:23:06;;;;;;;11.40;10.20;;;14.20;99.90;;;;;;5097830;28;20465;-56
2021/10/10 08:25:33;;;;;;;12.63;10.17;;;14.50;99.90;;;;;;5097870;28;20446;-54
2021/10/10 08:28:00;;;;;;;11.57;10.37;;;14.60;99.90;;;;;;5097799;28;20753;-55
2021/10/10 08:30:30;;;;;;;12.87;10.43;;;14.80;99.90;;;;;;5097374;28;20478;-55
2021/10/10 08:32:57;;;;;;;12.10;10.80;;;15.10;99.90;;;;;;5098026;28;20460;-54
2021/10/10 08:35:24;;;;;;;10.73;9.60;;;15.40;99.90;;;;;;5098043;28;20488;-56
2021/10/10 08:37:51;;;;;;;11.80;10.60;;;15.70;99.90;;;;;;5097698;28;20792;-54
2021/10/10 08:40:19;;;;;;;11.40;10.20;;;15.90;99.90;;;;;;5097411;28;20921;-54
2021/10/10 08:42:48;;;;;;;11.47;10.37;;;15.90;99.90;;;;;;5097471;28;20522;-54
2021/10/10 08:45:18;;;;;;;12.43;10.97;;;16.00;99.90;;;;;;5097516;28;20464;-57
2021/10/10 08:47:49;;;;;;;12.13;10.93;;;16.30;99.90;;;;;;5097504;28;20921;-58
2021/10/10 08:50:17;;;;;;;11.87;10.63;;;16.70;99.90;;;;;;5097801;28;20471;-57
2021/10/10 08:52:45;;;;;;;11.80;10.70;;;17.00;99.90;;;;;;5097491;28;20496;-57
2021/10/10 08:55:12;;;;;;;12.67;10.13;;;17.10;99.90;;;;;;5097077;28;20499;-54
2021/10/10 08:57:40;;;;;;;11.80;10.50;;;16.90;99.90;;;;;;5097686;28;20825;-52
2021/10/10 09:00:16;;;;;;;10.97;9.87;;;16.90;99.90;;;;;;5097686;28;20488;-53
2021/10/10 09:02:46;;;;;;;11.37;10.27;;;17.10;99.90;;;;;;5096458;28;20483;-53
2021/10/10 09:05:19;;;;;;;11.97;10.63;;;17.30;99.90;;;;;;5097221;28;20485;-51
2021/10/10 09:07:48;;;;;;;11.10;10.03;;;17.50;99.90;;;;;;5097234;28;20523;-51
2021/10/10 09:10:20;;;;;;;11.83;10.73;;;17.50;99.90;;;;;;5097480;28;20467;-51
2021/10/10 09:12:53;;;;;;;12.87;10.23;;;17.30;99.90;;;;;;5097323;28;20455;-54
2021/10/10 09:15:23;;;;;;;12.13;10.20;;;17.70;99.90;;;;;;5096669;28;20431;-51
2021/10/10 09:17:55;;;;;;;11.60;9.73;;;18.00;99.90;;;;;;5096516;28;20499;-52
2021/10/10 09:20:45;;;;;;;11.33;9.60;;;18.20;99.90;;;;;;5096351;28;20506;-52
2021/10/10 09:23:31;;;;;;;10.80;9.57;;;18.20;99.90;;;;;;5090915;28;20504;-51
2021/10/10 09:26:01;;;;;;;10.13;9.20;;;18.80;99.90;;;;;;5096569;28;20460;-47
2021/10/10 09:28:31;;;;;;;10.20;9.30;;;19.00;99.90;;;;;;5096161;28;20466;-50
2021/10/10 09:31:00;;;;;;;10.70;8.83;;;19.20;99.90;;;;;;5096169;28;20534;-49
2021/10/10 09:33:47;;;;;;;9.60;8.47;;;19.30;99.90;;;;;;5096130;28;20955;-50
2021/10/10 09:36:19;;;;;;;9.43;8.63;;;19.00;99.90;;;;;;5096234;28;20827;-54
2021/10/10 09:38:51;;;;;;;11.40;9.23;;;19.10;99.90;;;;;;5096394;28;20471;-55
2021/10/10 09:41:28;;;;;;;10.23;9.30;;;19.20;99.90;;;;;;5096608;28;20460;-50
2021/10/10 09:44:01;;;;;;;13.97;9.93;;;19.20;99.90;;;;;;5096895;28;20806;-47
2021/10/10 09:46:29;;;;;;;10.93;8.80;;;19.20;99.90;;;;;;5096540;28;20460;-50
2021/10/10 09:48:58;;;;;;;10.43;8.77;;;18.90;99.90;;;;;;5117486;28;20462;-47
2021/10/10 09:51:34;;;;;;;9.70;8.67;;;18.90;99.90;;;;;;5137686;28;20504;-48
2021/10/10 09:54:05;;;;;;;9.40;8.40;;;18.80;99.90;;;;;;5137762;28;20462;-49
2021/10/10 09:56:32;;;;;;;10.57;9.47;;;18.40;99.90;;;;;;5136727;28;20531;-48
2021/10/10 09:58:59;;;;;;;9.63;8.73;;;18.30;99.90;;;;;;5137568;28;20493;-47
2021/10/10 10:01:29;;;;;;;9.67;8.30;;;18.20;99.90;;;;;;5114843;28;20582;-53
2021/10/10 10:04:04;;;;;;;10.83;9.00;;;18.50;99.90;;;;;;5096955;28;20434;-51
2021/10/10 10:06:34;;;;;;;9.97;8.97;;;18.70;99.90;;;;;;5096460;28;20467;-49
2021/10/10 10:09:04;;;;;;;9.80;8.30;;;18.80;99.90;;;;;;5096653;28;20495;-50
2021/10/10 10:11:36;;;;;;;10.03;9.00;;;19.20;99.90;;;;;;5096657;28;20471;-48
2021/10/10 10:14:15;;;;;;;10.37;9.37;;;19.40;99.90;;;;;;5098644;28;20831;-48
2021/10/10 10:16:45;;;;;;;11.20;9.03;;;19.40;99.90;;;;;;5100363;28;20460;-50
2021/10/10 10:19:16;;;;;;;9.97;9.07;;;19.30;99.90;;;;;;5100112;28;20466;-46
2021/10/10 10:21:52;;;;;;;9.50;8.60;;;19.10;99.90;;;;;;5100662;28;20460;-49
2021/10/10 10:24:24;;;;;;;10.10;9.10;;;19.30;99.90;;;;;;5099952;28;20460;-52
2021/10/10 10:26:51;;;;;;;10.07;8.63;;;19.20;99.90;;;;;;5099821;28;20531;-47
2021/10/10 10:29:23;;;;;;;9.53;8.40;;;19.20;99.90;;;;;;5099994;28;20836;-53
2021/10/10 10:31:55;;;;;;;10.33;8.83;;;19.50;99.90;;;;;;5099647;28;20464;-57
2021/10/10 10:34:26;;;;;;;9.77;8.93;;;19.60;99.90;;;;;;5099388;28;20498;-53
2021/10/10 10:37:00;;;;;;;9.93;9.00;;;20.00;99.90;;;;;;5099766;28;20521;-54
2021/10/10 10:39:38;;;;;;;10.27;9.03;;;20.00;99.90;;;;;;5099434;28;20921;-53
2021/10/10 10:42:09;;;;;;;10.03;8.40;;;20.00;99.90;;;;;;5099779;28;20467;-54
2021/10/10 10:44:38;;;;;;;10.50;9.50;;;20.20;99.90;;;;;;5099917;28;20465;-54
2021/10/10 10:47:07;;;;;;;9.60;8.70;;;20.40;99.90;;;;;;5099522;28;20524;-55
2021/10/10 10:50:04;;;;;;;11.03;8.50;;;20.80;99.90;;;;;;5099639;28;20492;-55
2021/10/10 10:52:34;;;;;;;10.40;9.30;;;21.00;99.90;;;;;;5099424;28;20488;-54
2021/10/10 10:55:16;;;;;;;9.93;8.93;;;21.10;99.90;;;;;;5099076;28;20460;-53
2021/10/10 10:57:54;;;;;;;11.00;8.80;;;21.20;99.90;;;;;;5099512;28;20452;-55
2021/10/10 11:00:29;;;;;;;9.40;8.50;;;21.40;99.90;;;;;;5099153;28;20910;-57
2021/10/10 11:03:02;;;;;;;9.93;8.33;;;21.70;99.90;;;;;;5099315;28;20458;-54
2021/10/10 11:05:42;;;;;;;9.60;8.10;;;21.30;99.90;;;;;;5099550;28;20543;-49
2021/10/10 11:08:26;;;;;;;8.60;7.80;;;21.20;99.90;;;;;;5099620;28;20495;-48
2021/10/10 11:11:21;;;;;;;9.43;8.50;;;21.30;99.90;;;;;;5099071;28;20500;-51
2021/10/10 11:13:51;;;;;;;10.60;9.20;;;21.10;99.90;;;;;;5096585;28;20571;-53
2021/10/10 11:16:22;;;;;;;9.27;8.37;;;21.20;99.90;;;;;;5099044;28;20465;-51
2021/10/10 11:18:52;;;;;;;13.00;8.27;;;21.40;99.90;;;;;;5099342;28;20492;-51
2021/10/10 11:21:23;;;;;;;10.30;9.27;;;21.40;99.90;;;;;;5099075;28;20519;-53
2021/10/10 11:23:53;;;;;;;9.13;8.27;;;21.40;99.90;;;;;;5099171;28;20505;-50
2021/10/10 11:26:21;;;;;;;11.67;8.87;;;21.20;99.90;;;;;;5099050;28;20460;-49
2021/10/10 11:28:50;;;;;;;9.93;8.90;;;20.90;99.90;;;;;;5099049;28;20536;-53
2021/10/10 11:31:20;;;;;;;11.53;9.10;;;20.90;99.90;;;;;;5098831;28;20464;-49
2021/10/10 11:33:56;;;;;;;9.00;8.03;;;20.70;99.90;;;;;;5099261;28;20515;-56
2021/10/10 11:36:33;;;;;;;9.87;8.90;;;20.60;99.90;;;;;;5098710;28;20484;-53
2021/10/10 11:39:10;;;;;;;9.70;8.70;;;20.90;99.90;;;;;;5098661;28;20484;-48
2021/10/10 11:41:39;;;;;;;11.53;9.00;;;20.70;99.90;;;;;;5099112;28;20499;-50
2021/10/10 11:44:08;;;;;;;9.53;8.63;;;20.40;99.90;;;;;;5098645;28;20460;-52
2021/10/10 11:46:48;;;;;;;8.03;7.33;;;19.80;99.90;;;;;;5098329;28;20676;-52
2021/10/10 11:49:24;;;;;;;7.83;7.13;;;19.70;99.90;;;;;;5098525;28;20777;-48
2021/10/10 11:51:53;;;;;;;9.50;7.77;;;20.10;99.90;;;;;;5098639;28;20460;-51
2021/10/10 11:54:36;;;;;;;8.20;7.20;;;20.40;99.90;;;;;;5098444;28;20518;-55
2021/10/10 11:57:04;;;;;;;8.60;7.90;;;20.80;99.90;;;;;;5098370;28;20567;-53
2021/10/10 11:59:33;;;;;;;12.57;8.53;;;21.40;99.90;;;;;;5097329;28;20913;-52
2021/10/10 12:02:08;;;;;;;12.03;9.47;;;21.30;99.90;;;;;;5097589;28;20982;-54
2021/10/10 12:04:35;;;;;;;9.10;8.03;;;21.60;99.90;;;;;;5099076;28;20919;-53
2021/10/10 12:07:03;;;;;;;12.27;9.23;;;22.10;99.90;;;;;;5117891;28;20804;-50
2021/10/10 12:09:34;;;;;;;8.87;7.97;;;21.20;99.90;;;;;;5117803;28;20538;-52
2021/10/10 12:12:06;;;;;;;12.47;8.70;;;20.70;99.90;;;;;;5117660;28;20456;-50
2021/10/10 12:14:48;;;;;;;11.83;8.87;;;20.10;99.90;;;;;;5117661;28;20545;-56
2021/10/10 12:17:35;;;;;;;10.87;8.60;;;20.20;99.90;;;;;;5113690;28;20491;-51
2021/10/10 12:20:22;;;;;;;10.20;9.10;;;20.50;99.90;;;;;;5106204;28;20898;-52
2021/10/10 12:22:51;;;;;;;10.00;8.13;;;20.50;99.90;;;;;;5107481;28;20766;-51
2021/10/10 12:25:25;;;;;;;9.03;7.90;;;21.00;99.90;;;;;;5107192;28;20464;-52
2021/10/10 12:27:58;;;;;;;9.60;8.53;;;21.40;99.90;;;;;;5104652;28;20937;-50
2021/10/10 12:30:29;;;;;;;14.93;8.93;;;20.50;99.90;;;;;;5097858;28;20526;-48
2021/10/10 12:32:57;;;;;;;9.53;8.67;;;20.70;99.90;;;;;;5097419;28;20887;-53
2021/10/10 12:35:26;;;;;;;10.07;9.03;;;20.50;99.90;;;;;;5112486;28;20494;-53
2021/10/10 12:37:55;;;;;;;9.00;8.20;;;21.20;99.90;;;;;;5116337;28;20941;-57
2021/10/10 12:40:31;;;;;;;9.43;8.53;;;20.80;99.90;;;;;;5116350;28;20902;-55
2021/10/10 12:43:01;;;;;;;9.30;8.50;;;20.80;99.90;;;;;;5117036;28;20459;-53
2021/10/10 12:45:31;;;;;;;9.20;8.30;;;20.10;99.90;;;;;;5116969;28;20489;-52
2021/10/10 12:48:07;;;;;;;10.43;8.77;;;20.30;99.90;;;;;;5117066;28;20461;-50
2021/10/10 12:50:47;;;;;;;8.80;7.90;;;21.20;99.90;;;;;;5116478;28;20451;-56
2021/10/10 12:53:34;;;;;;;9.30;8.03;;;21.30;99.90;;;;;;5117499;28;20465;-51
2021/10/10 12:56:13;;;;;;;9.00;8.20;;;21.40;99.90;;;;;;5117521;28;20557;-50
2021/10/10 12:58:48;;;;;;;9.20;8.30;;;21.50;99.90;;;;;;5117678;28;20498;-54
2021/10/10 13:01:18;;;;;;;9.50;7.97;;;21.00;99.90;;;;;;5107642;28;20456;-54
2021/10/10 13:03:49;;;;;;;9.63;8.10;;;21.70;99.90;;;;;;5097772;28;20508;-56
2021/10/10 13:06:19;;;;;;;8.23;7.50;;;22.10;99.90;;;;;;5096666;28;20467;-55